createdAt,value
2018-08-11T00:01:54.142Z,3.63
2018-08-11T00:04:23.017Z,2.13
2018-08-11T00:07:03.924Z,2.80
2018-08-11T00:09:32.801Z,2.20
2018-08-11T00:12:01.662Z,2.80
2018-08-11T00:14:30.560Z,2.33
2018-08-11T00:16:59.600Z,2.83
2018-08-11T00:19:28.700Z,1.83
2018-08-11T00:21:57.738Z,13.23
2018-08-11T00:24:28.078Z,2.20
2018-08-11T00:26:59.750Z,3.23
2018-08-11T00:29:28.760Z,2.50
2018-08-11T00:31:57.649Z,2.80
2018-08-11T00:34:26.490Z,2.07
2018-08-11T00:36:55.498Z,4.40
2018-08-11T00:39:24.699Z,2.47
2018-08-11T00:41:53.936Z,2.53
2018-08-11T00:44:22.837Z,2.70
2018-08-11T00:46:51.698Z,2.80
2018-08-11T00:49:20.539Z,3.30
2018-08-11T00:51:49.478Z,1.50
2018-08-11T00:54:18.437Z,3.73
2018-08-11T00:56:49.925Z,3.30
2018-08-11T00:59:18.784Z,7.57
2018-08-11T01:01:47.457Z,4.10
2018-08-11T01:04:16.206Z,4.20
2018-08-11T01:06:45.037Z,3.53
2018-08-11T01:09:13.887Z,4.57
2018-08-11T01:11:42.653Z,3.73
2018-08-11T01:14:11.516Z,3.77
2018-08-11T01:16:40.313Z,4.20
2018-08-11T01:19:09.093Z,3.03
2018-08-11T01:21:38.041Z,4.37
2018-08-11T01:24:06.929Z,2.93
2018-08-11T01:26:35.588Z,2.10
2018-08-11T01:29:04.596Z,1.83
2018-08-11T01:31:33.410Z,9.83
2018-08-11T01:34:02.186Z,2.50
2018-08-11T01:36:30.965Z,1.60
2018-08-11T01:38:59.842Z,1.80
2018-08-11T01:41:28.661Z,2.20
2018-08-11T01:43:57.727Z,1.80
2018-08-11T01:46:26.446Z,1.83
2018-08-11T01:48:55.282Z,2.20
2018-08-11T01:51:24.038Z,1.83
2018-08-11T01:53:52.882Z,1.93
2018-08-11T01:56:21.548Z,1.73
2018-08-11T01:58:50.436Z,2.47
2018-08-11T02:01:19.162Z,2.67
2018-08-11T02:03:48.016Z,2.47
2018-08-11T02:06:16.832Z,2.80
2018-08-11T02:08:45.636Z,2.00
2018-08-11T02:11:14.366Z,2.70
2018-08-11T02:13:43.154Z,4.10
2018-08-11T02:16:11.846Z,2.37
2018-08-11T02:18:40.689Z,2.63
2018-08-11T02:21:09.507Z,2.50
2018-08-11T02:23:38.334Z,1.90
2018-08-11T02:26:07.130Z,2.60
2018-08-11T02:28:35.867Z,2.00
2018-08-11T02:31:04.605Z,2.10
2018-08-11T02:33:33.445Z,2.47
2018-08-11T02:36:02.142Z,1.70
2018-08-11T02:38:31.089Z,4.13
2018-08-11T02:40:59.822Z,4.80
2018-08-11T02:43:28.490Z,2.50
2018-08-11T02:45:57.268Z,2.47
2018-08-11T02:48:26.037Z,6.00
2018-08-11T02:50:54.725Z,2.20
2018-08-11T02:53:23.590Z,2.30
2018-08-11T02:55:52.333Z,2.50
2018-08-11T02:58:21.277Z,1.90
2018-08-11T03:00:50.106Z,2.67
2018-08-11T03:03:18.842Z,3.43
2018-08-11T03:05:47.552Z,1.77
2018-08-11T03:08:16.417Z,2.20
2018-08-11T03:10:45.301Z,2.33
2018-08-11T03:13:14.157Z,1.97
2018-08-11T03:15:43.162Z,3.20
2018-08-11T03:18:12.294Z,2.30
2018-08-11T03:20:41.118Z,4.60
2018-08-11T03:23:10.181Z,3.40
2018-08-11T03:25:39.145Z,3.70
2018-08-11T03:28:08.037Z,3.17
2018-08-11T03:30:36.944Z,3.73
2018-08-11T03:33:05.657Z,3.57
2018-08-11T03:35:34.529Z,2.90
2018-08-11T03:38:03.388Z,3.43
2018-08-11T03:40:32.166Z,3.93
2018-08-11T03:43:01.029Z,3.40
2018-08-11T03:45:29.872Z,3.80
2018-08-11T03:47:58.681Z,4.33
2018-08-11T03:50:27.551Z,4.63
2018-08-11T03:52:56.405Z,3.93
2018-08-11T03:55:25.294Z,4.53
2018-08-11T03:57:54.111Z,4.47
2018-08-11T04:00:23.101Z,5.20
2018-08-11T04:02:52.196Z,5.33
2018-08-11T04:05:21.003Z,6.60
2018-08-11T04:07:49.830Z,7.80
2018-08-11T04:10:18.668Z,6.47
2018-08-11T04:12:47.446Z,6.03
2018-08-11T04:15:16.348Z,6.97
2018-08-11T04:17:45.161Z,7.40
2018-08-11T04:20:14.254Z,13.87
2018-08-11T04:22:43.065Z,8.20
2018-08-11T04:25:11.833Z,9.47
2018-08-11T04:27:40.534Z,13.43
2018-08-11T04:30:10.785Z,10.10
2018-08-11T04:32:39.769Z,11.07
2018-08-11T04:35:08.991Z,10.50
2018-08-11T04:37:37.722Z,10.57
2018-08-11T04:40:06.557Z,10.63
2018-08-11T04:42:35.323Z,11.27
2018-08-11T04:45:05.006Z,11.30
2018-08-11T04:47:33.844Z,15.83
2018-08-11T04:50:02.642Z,13.60
2018-08-11T04:52:31.397Z,12.30
2018-08-11T04:55:00.215Z,11.77
2018-08-11T04:57:29.042Z,13.27
2018-08-11T04:59:58.389Z,13.30
2018-08-11T05:02:27.249Z,14.07
2018-08-11T05:04:55.999Z,18.60
2018-08-11T05:07:24.892Z,12.73
2018-08-11T05:09:53.725Z,15.20
2018-08-11T05:12:22.429Z,13.87
2018-08-11T05:14:51.314Z,11.77
2018-08-11T05:17:20.117Z,14.17
2018-08-11T05:19:49.022Z,14.63
2018-08-11T05:22:17.830Z,13.17
2018-08-11T05:24:46.629Z,13.70
2018-08-11T05:27:15.513Z,13.60
2018-08-11T05:29:44.261Z,16.47
2018-08-11T05:32:13.034Z,19.47
2018-08-11T05:34:41.819Z,14.23
2018-08-11T05:37:10.729Z,15.93
2018-08-11T05:39:39.620Z,19.40
2018-08-11T05:42:08.417Z,17.13
2018-08-11T05:44:37.186Z,23.27
2018-08-11T05:47:06.329Z,22.13
2018-08-11T05:49:35.144Z,24.90
2018-08-11T05:52:03.893Z,22.03
2018-08-11T05:54:32.645Z,19.37
2018-08-11T05:57:01.405Z,17.83
2018-08-11T05:59:30.271Z,18.57
2018-08-11T06:01:59.119Z,17.50
2018-08-11T06:04:27.961Z,18.47
2018-08-11T06:06:56.903Z,18.47
2018-08-11T06:09:25.679Z,32.43
2018-08-11T06:11:54.640Z,53.97
2018-08-11T06:14:23.978Z,19.13
2018-08-11T06:16:52.927Z,16.57
2018-08-11T06:19:21.893Z,18.40
2018-08-11T06:21:50.816Z,17.67
2018-08-11T06:24:19.617Z,19.83
2018-08-11T06:26:48.561Z,16.07
2018-08-11T06:29:17.679Z,18.63
2018-08-11T06:31:46.707Z,17.27
2018-08-11T06:34:15.658Z,18.63
2018-08-11T06:36:44.867Z,16.07
2018-08-11T06:39:14.911Z,16.00
2018-08-11T06:41:44.401Z,19.03
2018-08-11T06:44:13.937Z,16.47
2018-08-11T06:46:42.827Z,14.63
2018-08-11T06:49:11.865Z,16.37
2018-08-11T06:51:41.638Z,16.23
2018-08-11T06:54:10.733Z,15.90
2018-08-11T06:56:39.677Z,15.37
2018-08-11T06:59:08.618Z,15.60
2018-08-11T07:01:37.749Z,19.80
2018-08-11T07:04:06.868Z,24.40
2018-08-11T07:06:35.619Z,16.13
2018-08-11T07:09:06.489Z,18.53
2018-08-11T07:11:35.390Z,22.57
2018-08-11T07:14:04.323Z,17.63
2018-08-11T07:16:33.433Z,14.27
2018-08-11T07:19:02.241Z,15.17
2018-08-11T07:21:31.509Z,15.67
2018-08-11T07:24:00.393Z,16.83
2018-08-11T07:26:29.854Z,15.17
2018-08-11T07:28:58.652Z,13.37
2018-08-11T07:31:27.618Z,11.97
2018-08-11T07:33:56.661Z,11.93
2018-08-11T07:36:25.546Z,11.67
2018-08-11T07:38:54.160Z,12.67
2018-08-11T07:41:23.058Z,19.33
2018-08-11T07:43:52.352Z,10.77
2018-08-11T07:46:21.642Z,12.27
2018-08-11T07:48:50.799Z,10.73
2018-08-11T07:51:20.058Z,16.13
2018-08-11T07:53:48.982Z,10.70
2018-08-11T07:56:18.213Z,12.93
2018-08-11T07:58:47.709Z,10.23
2018-08-11T08:01:16.660Z,9.00
2018-08-11T08:03:45.468Z,17.17
2018-08-11T08:06:14.341Z,9.80
2018-08-11T08:08:43.122Z,6.67
2018-08-11T08:11:11.909Z,9.53
2018-08-11T08:13:40.842Z,13.40
2018-08-11T08:16:09.538Z,5.13
2018-08-11T08:18:38.395Z,7.40
2018-08-11T08:21:07.253Z,5.93
2018-08-11T08:23:36.622Z,5.40
2018-08-11T08:26:05.485Z,5.50
2018-08-11T08:28:34.333Z,4.40
2018-08-11T08:31:03.272Z,6.80
2018-08-11T08:33:32.030Z,10.63
2018-08-11T08:36:01.330Z,6.30
2018-08-11T08:38:30.102Z,5.03
2018-08-11T08:40:58.894Z,4.60
2018-08-11T08:43:27.705Z,4.47
2018-08-11T08:45:56.645Z,7.13
2018-08-11T08:48:25.500Z,3.67
2018-08-11T08:50:54.331Z,3.10
2018-08-11T08:53:23.184Z,2.97
2018-08-11T08:55:51.981Z,3.73
2018-08-11T08:58:20.737Z,3.70
2018-08-11T09:00:49.509Z,3.47
2018-08-11T09:03:18.510Z,2.67
2018-08-11T09:05:47.285Z,3.20
2018-08-11T09:08:16.411Z,2.47
2018-08-11T09:10:45.254Z,5.93
2018-08-11T09:13:14.065Z,5.37
2018-08-11T09:15:42.831Z,3.40
2018-08-11T09:18:11.858Z,5.90
2018-08-11T09:20:40.709Z,2.87
2018-08-11T09:23:09.684Z,3.20
2018-08-11T09:25:38.493Z,4.23
2018-08-11T09:28:07.345Z,4.20
2018-08-11T09:30:36.230Z,3.57
2018-08-11T09:33:05.207Z,4.20
2018-08-11T09:35:33.974Z,3.00
2018-08-11T09:38:02.987Z,2.60
2018-08-11T09:40:31.851Z,8.17
2018-08-11T09:43:00.770Z,2.57
2018-08-11T09:45:29.757Z,2.97
2018-08-11T09:47:58.568Z,4.83
2018-08-11T09:50:27.297Z,2.93
2018-08-11T09:52:56.207Z,2.30
2018-08-11T09:56:55.599Z,4.20
2018-08-11T09:59:24.387Z,6.30
2018-08-11T10:01:58.282Z,2.40
2018-08-11T10:04:27.333Z,3.00
2018-08-11T10:06:56.143Z,2.53
2018-08-11T10:09:25.101Z,2.97
2018-08-11T10:11:53.925Z,12.17
2018-08-11T10:14:22.794Z,4.67
2018-08-11T10:16:51.643Z,2.60
2018-08-11T10:19:20.591Z,8.67
2018-08-11T10:21:49.446Z,3.37
2018-08-11T10:24:18.228Z,2.67
2018-08-11T10:26:47.089Z,1.80
2018-08-11T10:29:16.046Z,1.63
2018-08-11T10:31:44.901Z,2.27
2018-08-11T10:34:13.800Z,1.90
2018-08-11T10:36:42.724Z,2.20
2018-08-11T10:39:13.069Z,6.73
2018-08-11T10:41:42.210Z,2.37
2018-08-11T10:44:12.322Z,7.70
2018-08-11T10:46:41.213Z,2.87
2018-08-11T10:49:10.042Z,2.43
2018-08-11T10:51:38.773Z,6.13
2018-08-11T10:54:07.777Z,5.87
2018-08-11T10:56:36.646Z,7.73
2018-08-11T10:59:05.548Z,2.10
2018-08-11T11:01:34.374Z,2.73
2018-08-11T11:04:03.349Z,2.37
2018-08-11T11:06:32.254Z,2.40
2018-08-11T11:09:01.101Z,2.23
2018-08-11T11:11:29.999Z,4.00
2018-08-11T11:13:59.469Z,2.47
2018-08-11T11:16:28.317Z,4.30
2018-08-11T11:18:57.280Z,2.70
2018-08-11T11:21:26.978Z,2.43
2018-08-11T11:23:55.712Z,2.83
2018-08-11T11:26:24.540Z,4.17
2018-08-11T11:28:53.367Z,2.30
2018-08-11T11:31:22.230Z,3.20
2018-08-11T11:33:51.000Z,2.10
2018-08-11T11:36:19.830Z,2.30
2018-08-11T11:38:48.922Z,2.70
2018-08-11T11:41:17.664Z,1.97
2018-08-11T11:43:46.629Z,2.67
2018-08-11T11:46:15.614Z,2.20
2018-08-11T11:48:44.552Z,2.50
2018-08-11T11:51:13.341Z,5.47
2018-08-11T11:53:42.178Z,3.70
2018-08-11T11:56:11.012Z,2.40
2018-08-11T11:58:39.799Z,3.10
2018-08-11T12:01:08.870Z,3.30
2018-08-11T12:03:37.674Z,2.80
2018-08-11T12:06:06.565Z,3.90
2018-08-11T12:08:35.425Z,2.87
2018-08-11T12:11:04.214Z,2.93
2018-08-11T12:13:33.035Z,1.97
2018-08-11T12:16:01.832Z,3.00
2018-08-11T12:18:30.750Z,5.47
2018-08-11T12:20:59.553Z,2.90
2018-08-11T12:23:28.409Z,7.70
2018-08-11T12:25:57.327Z,2.70
2018-08-11T12:28:26.222Z,8.00
2018-08-11T12:30:55.088Z,11.50
2018-08-11T12:33:23.886Z,2.83
2018-08-11T12:35:52.762Z,3.30
2018-08-11T12:38:21.573Z,6.67
2018-08-11T12:40:50.420Z,2.47
2018-08-11T12:43:21.354Z,3.80
2018-08-11T12:45:50.223Z,3.30
2018-08-11T12:48:19.075Z,2.87
2018-08-11T12:50:48.030Z,3.53
2018-08-11T12:53:16.766Z,3.60
2018-08-11T12:55:45.674Z,4.33
2018-08-11T12:58:14.569Z,5.40
2018-08-11T13:00:43.386Z,3.27
2018-08-11T13:03:12.527Z,4.27
2018-08-11T13:05:41.529Z,3.17
2018-08-11T13:08:10.609Z,3.70
2018-08-11T13:10:39.525Z,3.30
2018-08-11T13:13:08.352Z,3.33
2018-08-11T13:15:37.150Z,2.40
2018-08-11T13:18:06.250Z,2.90
2018-08-11T13:20:35.202Z,2.83
2018-08-11T13:23:04.091Z,3.40
2018-08-11T13:25:32.920Z,19.77
2018-08-11T13:28:01.798Z,3.17
2018-08-11T13:30:30.710Z,3.47
2018-08-11T13:32:59.484Z,3.53
2018-08-11T13:35:28.317Z,2.67
2018-08-11T13:37:57.263Z,2.80
2018-08-11T13:40:26.191Z,3.00
2018-08-11T13:42:54.973Z,3.13
2018-08-11T13:45:23.737Z,2.60
2018-08-11T13:47:52.545Z,2.47
2018-08-11T13:50:21.442Z,3.53
2018-08-11T13:52:50.266Z,2.60
2018-08-11T13:55:19.030Z,3.23
2018-08-11T13:57:47.837Z,3.37
2018-08-11T14:00:17.107Z,3.70
2018-08-11T14:02:46.125Z,2.63
2018-08-11T14:05:15.003Z,3.00
2018-08-11T14:07:44.232Z,3.63
2018-08-11T14:10:13.122Z,3.80
2018-08-11T14:12:41.928Z,2.80
2018-08-11T14:15:11.061Z,2.50
2018-08-11T14:17:39.884Z,2.60
2018-08-11T14:20:10.024Z,2.70
2018-08-11T14:22:39.261Z,2.33
2018-08-11T14:25:08.666Z,4.53
2018-08-11T14:27:37.677Z,2.53
2018-08-11T14:30:08.980Z,2.30
2018-08-11T14:32:38.334Z,2.40
2018-08-11T14:35:07.237Z,2.60
2018-08-11T14:37:36.046Z,2.70
2018-08-11T14:40:06.734Z,2.53
2018-08-11T14:42:35.501Z,2.40
2018-08-11T14:45:05.223Z,3.33
2018-08-11T14:47:34.070Z,2.47
2018-08-11T14:50:02.932Z,2.50
2018-08-11T14:52:31.773Z,2.00
2018-08-11T14:55:00.645Z,2.00
2018-08-11T14:57:29.571Z,1.93
2018-08-11T14:59:58.397Z,1.83
2018-08-11T15:02:27.242Z,2.20
2018-08-11T15:04:56.144Z,2.00
2018-08-11T15:07:24.958Z,2.33
2018-08-11T15:09:53.853Z,2.60
2018-08-11T15:12:22.664Z,2.37
2018-08-11T15:14:51.441Z,2.33
2018-08-11T15:17:20.224Z,2.10
2018-08-11T15:19:49.043Z,2.23
2018-08-11T15:22:18.257Z,2.03
2018-08-11T15:24:46.945Z,2.10
2018-08-11T15:27:16.037Z,2.27
2018-08-11T15:29:44.919Z,3.20
2018-08-11T15:32:13.771Z,2.43
2018-08-11T15:34:42.668Z,2.70
2018-08-11T15:37:11.493Z,1.90
2018-08-11T15:39:40.394Z,7.93
2018-08-11T15:42:09.327Z,2.47
2018-08-11T15:44:38.153Z,2.30
2018-08-11T15:47:07.327Z,2.80
2018-08-11T15:49:36.469Z,2.40
2018-08-11T15:52:05.305Z,2.50
2018-08-11T15:54:34.088Z,2.73
2018-08-11T15:57:03.095Z,5.13
2018-08-11T15:59:32.190Z,2.60
2018-08-11T16:02:01.150Z,2.17
2018-08-11T16:04:30.403Z,2.30
2018-08-11T16:06:59.498Z,3.60
2018-08-11T16:09:28.532Z,2.07
2018-08-11T16:11:57.417Z,2.20
2018-08-11T16:14:26.258Z,2.63
2018-08-11T16:16:55.129Z,2.60
2018-08-11T16:19:24.233Z,5.43
2018-08-11T16:21:53.113Z,2.77
2018-08-11T16:24:22.328Z,2.77
2018-08-11T16:26:51.400Z,2.67
2018-08-11T16:29:20.357Z,2.00
2018-08-11T16:31:49.282Z,3.10
2018-08-11T16:34:18.177Z,2.57
2018-08-11T16:36:47.040Z,2.93
2018-08-11T16:39:15.851Z,5.60
2018-08-11T16:41:44.628Z,2.93
2018-08-11T16:44:13.620Z,2.30
2018-08-11T16:46:42.507Z,3.80
2018-08-11T16:49:11.439Z,2.43
2018-08-11T16:51:40.302Z,2.43
2018-08-11T16:54:09.527Z,2.87
2018-08-11T16:56:38.340Z,2.50
2018-08-11T16:59:07.306Z,4.63
2018-08-11T17:01:36.004Z,2.83
2018-08-11T17:04:04.842Z,2.07
2018-08-11T17:06:33.629Z,2.33
2018-08-11T17:09:02.490Z,2.83
2018-08-11T17:11:31.450Z,3.00
2018-08-11T17:14:00.263Z,2.30
2018-08-11T17:16:29.041Z,2.30
2018-08-11T17:18:57.917Z,3.63
2018-08-11T17:21:26.721Z,2.03
2018-08-11T17:23:55.684Z,31.83
2018-08-11T17:26:24.461Z,2.67
2018-08-11T17:28:53.430Z,3.00
2018-08-11T17:31:22.308Z,2.00
2018-08-11T17:33:51.049Z,2.30
2018-08-11T17:36:19.981Z,2.47
2018-08-11T17:38:48.876Z,2.77
2018-08-11T17:41:17.766Z,2.30
2018-08-11T17:43:46.585Z,5.23
2018-08-11T17:46:15.470Z,2.40
2018-08-11T17:48:44.299Z,2.20
2018-08-11T17:51:13.187Z,2.00
2018-08-11T17:53:42.013Z,2.30
2018-08-11T17:56:10.922Z,3.00
2018-08-11T17:58:39.763Z,2.83
2018-08-11T18:01:08.720Z,2.00
2018-08-11T18:03:37.424Z,1.73
2018-08-11T18:06:06.357Z,2.60
2018-08-11T18:08:35.166Z,1.73
2018-08-11T18:11:04.078Z,2.10
2018-08-11T18:13:33.046Z,1.70
2018-08-11T18:16:04.599Z,1.67
2018-08-11T18:18:33.425Z,2.00
2018-08-11T18:21:02.283Z,2.23
2018-08-11T18:23:31.253Z,1.40
2018-08-11T18:25:59.996Z,2.40
2018-08-11T18:28:29.081Z,2.37
2018-08-11T18:30:57.862Z,1.80
2018-08-11T18:33:26.674Z,1.90
2018-08-11T18:35:55.501Z,2.20
2018-08-11T18:38:24.267Z,3.80
2018-08-11T18:40:53.110Z,1.67
2018-08-11T18:43:21.968Z,1.97
2018-08-11T18:45:51.405Z,1.77
2018-08-11T18:48:20.206Z,2.53
2018-08-11T18:50:48.970Z,1.93
2018-08-11T18:53:17.788Z,2.30
2018-08-11T18:55:46.601Z,1.90
2018-08-11T18:58:15.725Z,2.43
2018-08-11T19:00:44.651Z,2.57
2018-08-11T19:03:13.516Z,8.47
2018-08-11T19:05:42.369Z,2.07
2018-08-11T19:08:11.169Z,1.70
2018-08-11T19:10:39.940Z,1.90
2018-08-11T19:13:08.936Z,3.27
2018-08-11T19:15:37.822Z,3.50
2018-08-11T19:18:07.045Z,1.53
2018-08-11T19:20:36.037Z,2.20
2018-08-11T19:23:04.942Z,2.13
2018-08-11T19:25:33.869Z,1.90
2018-08-11T19:28:02.758Z,3.03
2018-08-11T19:30:31.672Z,2.50
2018-08-11T19:33:00.571Z,1.97
2018-08-11T19:35:29.478Z,3.03
2018-08-11T19:37:58.273Z,4.33
2018-08-11T19:40:27.147Z,4.63
2018-08-11T19:42:56.021Z,2.03
2018-08-11T19:45:25.055Z,2.53
2018-08-11T19:47:53.969Z,2.43
2018-08-11T19:50:22.901Z,11.50
2018-08-11T19:52:51.711Z,2.00
2018-08-11T19:55:20.560Z,1.90
2018-08-11T19:57:49.566Z,2.10
2018-08-11T20:00:18.470Z,1.93
2018-08-11T20:02:48.261Z,2.30
2018-08-11T20:05:17.413Z,2.10
2018-08-11T20:07:46.273Z,2.47
2018-08-11T20:10:15.281Z,2.57
2018-08-11T20:12:44.275Z,1.50
2018-08-11T20:15:13.212Z,2.00
2018-08-11T20:17:42.013Z,1.80
2018-08-11T20:20:11.388Z,1.80
2018-08-11T20:22:40.301Z,2.50
2018-08-11T20:25:09.197Z,2.30
2018-08-11T20:27:38.145Z,2.27
2018-08-11T20:30:08.564Z,2.87
2018-08-11T20:32:37.487Z,2.13
2018-08-11T20:35:06.603Z,2.20
2018-08-11T20:37:35.541Z,2.53
2018-08-11T20:40:05.104Z,2.60
2018-08-11T20:42:34.100Z,2.23
2018-08-11T20:45:02.981Z,2.63
2018-08-11T20:47:31.828Z,2.77
2018-08-11T20:50:00.744Z,3.23
2018-08-11T20:52:29.633Z,2.57
2018-08-11T20:54:58.654Z,2.57
2018-08-11T20:57:27.568Z,3.10
2018-08-11T20:59:56.424Z,2.83
2018-08-11T21:02:25.268Z,3.90
2018-08-11T21:04:54.098Z,3.40
2018-08-11T21:07:22.958Z,6.93
2018-08-11T21:09:51.844Z,2.60
2018-08-11T21:12:20.803Z,3.03
2018-08-11T21:14:49.618Z,3.00
2018-08-11T21:17:18.460Z,3.20
2018-08-11T21:19:47.465Z,2.77
2018-08-11T21:22:16.334Z,3.13
2018-08-11T21:24:45.224Z,2.27
2018-08-11T21:27:14.068Z,8.90
2018-08-11T21:29:42.993Z,3.27
2018-08-11T21:32:11.847Z,2.87
2018-08-11T21:34:40.773Z,3.90
2018-08-11T21:37:09.668Z,3.77
2018-08-11T21:39:38.499Z,3.57
2018-08-11T21:42:07.741Z,2.93
2018-08-11T21:44:37.657Z,2.20
2018-08-11T21:47:06.667Z,2.80
2018-08-11T21:49:35.390Z,3.00
2018-08-11T21:52:04.621Z,3.27
2018-08-11T21:54:35.481Z,3.30
2018-08-11T21:57:04.447Z,2.83
2018-08-11T21:59:33.314Z,3.67
2018-08-11T22:02:02.483Z,2.70
2018-08-11T22:04:33.795Z,2.77
2018-08-11T22:07:04.734Z,3.53
2018-08-11T22:09:33.624Z,3.40
2018-08-11T22:12:02.909Z,3.10
2018-08-11T22:14:31.925Z,3.97
2018-08-11T22:17:01.363Z,14.00
2018-08-11T22:19:30.281Z,4.13
2018-08-11T22:21:59.070Z,3.93
2018-08-11T22:24:27.975Z,4.30
2018-08-11T22:26:56.838Z,9.53
2018-08-11T22:29:25.693Z,3.73
2018-08-11T22:31:54.526Z,6.43
2018-08-11T22:34:23.291Z,3.20
2018-08-11T22:36:52.261Z,3.93
2018-08-11T22:39:21.098Z,4.00
2018-08-11T22:41:49.993Z,3.70
2018-08-11T22:44:18.807Z,3.20
2018-08-11T22:46:48.941Z,3.40
2018-08-11T22:49:17.662Z,3.50
2018-08-11T22:51:46.528Z,3.60
2018-08-11T22:54:15.384Z,3.60
2018-08-11T22:56:44.332Z,3.67
2018-08-11T22:59:13.088Z,3.37
2018-08-11T23:01:42.042Z,10.00
2018-08-11T23:04:10.822Z,3.40
2018-08-11T23:06:39.716Z,5.57
2018-08-11T23:09:08.559Z,4.23
2018-08-11T23:11:37.383Z,3.77
2018-08-11T23:14:06.290Z,3.50
2018-08-11T23:16:35.216Z,3.00
2018-08-11T23:19:04.140Z,3.60
2018-08-11T23:21:32.890Z,3.07
2018-08-11T23:24:02.757Z,3.27
2018-08-11T23:26:31.728Z,3.27
2018-08-11T23:29:00.603Z,3.20
2018-08-11T23:31:29.449Z,5.23
2018-08-11T23:33:58.189Z,3.13
2018-08-11T23:36:26.962Z,2.90
2018-08-11T23:38:55.825Z,3.70
2018-08-11T23:41:24.645Z,4.63
2018-08-11T23:43:53.577Z,3.50
2018-08-11T23:46:22.420Z,4.20
2018-08-11T23:48:51.337Z,3.33
2018-08-11T23:51:20.112Z,4.53
2018-08-11T23:53:48.850Z,4.53
2018-08-11T23:56:17.745Z,4.27
2018-08-11T23:58:46.618Z,4.80
